Time;durP1;ratioP1;P1;durP2;ratioP2;P2;SDS_P1;SDS_P2;PMS_P1;PMS_P2;Temp;Humidity;BMP_temperature;BMP_pressure;BME280_temperature;BME280_humidity;BME280_pressure;Samples;Min_cycle;Max_cycle;Signal;HPM_P1;HPM_P2
2023/06/28 00:00:20;;;;;;;11.70;4.78;;;;;;;;;;5081135;28;20032;-69
2023/06/28 00:02:46;;;;;;;12.10;4.95;;;;;;;;;;5080351;28;20030;-69
2023/06/28 00:05:12;;;;;;;13.52;5.80;;;;;;;;;;5076361;28;20033;-68
2023/06/28 00:07:38;;;;;;;14.73;5.05;;;;;;;;;;5092349;28;20111;-69
2023/06/28 00:10:05;;;;;;;12.15;5.22;;;;;;;;;;5089664;28;20043;-68
2023/06/28 00:12:31;;;;;;;11.90;5.90;;;;;;;;;;5084120;28;20036;-68
2023/06/28 00:14:58;;;;;;;9.88;5.78;;;;;;;;;;5086879;28;20103;-68
2023/06/28 00:17:27;;;;;;;10.63;5.72;;;;;;;;;;5078039;28;20086;-69
2023/06/28 00:19:57;;;;;;;11.15;6.38;;;;;;;;;;5083511;28;20050;-69
2023/06/28 00:22:29;;;;;;;14.43;6.20;;;;;;;;;;5075666;28;20068;-68
2023/06/28 00:25:01;;;;;;;13.63;6.20;;;;;;;;;;5073961;28;20375;-68
2023/06/28 00:27:27;;;;;;;;;;;;;;;;;;5083411;28;20046;-68
2023/06/28 00:29:54;;;;;;;18.23;6.07;;;;;;;;;;5089886;28;20321;-68
2023/06/28 00:32:20;;;;;;;10.68;6.13;;;;;;;;;;5093784;28;20043;-68
2023/06/28 00:34:46;;;;;;;14.63;6.45;;;;;;;;;;5092871;28;20016;-69
2023/06/28 00:37:12;;;;;;;10.45;6.07;;;;;;;;;;5056585;28;20037;-68
2023/06/28 00:39:38;;;;;;;9.52;5.68;;;;;;;;;;5082531;28;20071;-69
2023/06/28 00:42:04;;;;;;;11.40;5.88;;;;;;;;;;5062467;28;20037;-69
2023/06/28 00:44:29;;;;;;;13.43;5.82;;;;;;;;;;5079665;28;20024;-69
2023/06/28 00:46:57;;;;;;;13.10;5.80;;;;;;;;;;5073138;28;20050;-69
2023/06/28 00:49:25;;;;;;;12.10;6.03;;;;;;;;;;5067900;28;20049;-69
2023/06/28 00:51:51;;;;;;;12.98;6.30;;;;;;;;;;5063113;28;20088;-69
2023/06/28 00:54:18;;;;;;;15.52;6.18;;;;;;;;;;5076825;28;20029;-69
2023/06/28 00:56:45;;;;;;;16.58;6.68;;;;;;;;;;5085610;28;20025;-69
2023/06/28 00:59:11;;;;;;;10.10;5.82;;;;;;;;;;5057198;28;20025;-70
2023/06/28 01:01:38;;;;;;;15.90;6.57;;;;;;;;;;5073480;28;20043;-68
2023/06/28 01:04:06;;;;;;;14.45;6.20;;;;;;;;;;5080601;28;20406;-69
2023/06/28 01:06:36;;;;;;;9.55;5.38;;;;;;;;;;5075016;28;20035;-68
2023/06/28 01:09:24;;;;;;;9.00;5.38;;;;;;;;;;5069987;28;20118;-68
2023/06/28 01:11:51;;;;;;;9.13;5.30;;;;;;;;;;5070410;28;20060;-68
2023/06/28 01:14:18;;;;;;;11.02;5.57;;;;;;;;;;5066397;28;20364;-68
2023/06/28 01:16:54;;;;;;;7.93;5.05;;;;;;;;;;5052365;28;20119;-69
2023/06/28 01:19:22;;;;;;;15.77;6.20;;;;;;;;;;5052171;28;20033;-68
2023/06/28 01:21:50;;;;;;;10.55;6.10;;;;;;;;;;5052421;28;20032;-68
2023/06/28 01:24:16;;;;;;;7.82;5.60;;;;;;;;;;5052319;28;20068;-69
2023/06/28 01:26:43;;;;;;;14.15;6.00;;;;;;;;;;5052206;28;20119;-69
2023/06/28 01:29:09;;;;;;;10.07;5.72;;;;;;;;;;5068484;28;20060;-68
2023/06/28 01:31:36;;;;;;;9.80;5.28;;;;;;;;;;5053399;28;20064;-69
2023/06/28 01:34:02;;;;;;;8.63;4.75;;;;;;;;;;5052128;28;20033;-68
2023/06/28 01:36:28;;;;;;;9.30;5.00;;;;;;;;;;5065531;28;20032;-69
2023/06/28 01:38:56;;;;;;;7.10;4.80;;;;;;;;;;5069026;28;20080;-68
2023/06/28 01:41:23;;;;;;;8.45;5.70;;;;;;;;;;5081599;28;20222;-69
2023/06/28 01:43:49;;;;;;;8.00;4.53;;;;;;;;;;5074983;28;20041;-69
2023/06/28 01:46:16;;;;;;;13.50;6.43;;;;;;;;;;5082573;28;20035;-68
2023/06/28 01:48:43;;;;;;;16.15;6.28;;;;;;;;;;5075155;28;20036;-68
2023/06/28 01:51:10;;;;;;;11.52;6.47;;;;;;;;;;5079434;28;20052;-68
2023/06/28 01:53:36;;;;;;;8.18;5.57;;;;;;;;;;5084831;28;20129;-69
2023/06/28 01:56:02;;;;;;;10.07;5.40;;;;;;;;;;5069696;28;20044;-69
2023/06/28 01:58:29;;;;;;;11.32;5.60;;;;;;;;;;5051599;28;20067;-68
2023/06/28 02:00:55;;;;;;;9.02;5.22;;;;;;;;;;5064633;28;20056;-69
2023/06/28 02:03:20;;;;;;;9.40;6.25;;;;;;;;;;5079886;28;20460;-69
2023/06/28 02:05:46;;;;;;;8.32;4.95;;;;;;;;;;5092619;28;20034;-68
2023/06/28 02:08:12;;;;;;;7.95;5.22;;;;;;;;;;5072698;28;20028;-69
2023/06/28 02:10:38;;;;;;;9.80;5.45;;;;;;;;;;5070479;28;20021;-69
2023/06/28 02:13:05;;;;;;;9.30;6.10;;;;;;;;;;5071270;28;20028;-69
2023/06/28 02:15:31;;;;;;;9.57;5.55;;;;;;;;;;5070901;28;20031;-69
2023/06/28 02:17:58;;;;;;;9.65;5.47;;;;;;;;;;5072461;28;20032;-69
2023/06/28 02:20:24;;;;;;;13.65;5.85;;;;;;;;;;5070705;28;20047;-69
2023/06/28 02:22:50;;;;;;;12.25;5.70;;;;;;;;;;5068623;28;20056;-69
2023/06/28 02:25:17;;;;;;;11.40;5.75;;;;;;;;;;5075196;28;20024;-69
2023/06/28 02:27:43;;;;;;;14.05;5.60;;;;;;;;;;5064790;28;20039;-69
2023/06/28 02:30:09;;;;;;;10.20;5.35;;;;;;;;;;5069804;28;20482;-70
2023/06/28 02:32:34;;;;;;;12.02;4.95;;;;;;;;;;5076202;28;20040;-69
2023/06/28 02:35:00;;;;;;;7.75;5.07;;;;;;;;;;5079021;28;20017;-68
2023/06/28 02:37:26;;;;;;;13.30;5.30;;;;;;;;;;5081270;28;20435;-69
2023/06/28 02:39:52;;;;;;;18.42;6.13;;;;;;;;;;5080630;28;20062;-69
2023/06/28 02:42:17;;;;;;;13.07;5.70;;;;;;;;;;5054548;28;20024;-69
2023/06/28 02:44:44;;;;;;;11.02;5.28;;;;;;;;;;5060595;28;20041;-68
2023/06/28 02:47:10;;;;;;;8.40;5.30;;;;;;;;;;5050362;28;20043;-69
2023/06/28 02:49:36;;;;;;;16.42;5.80;;;;;;;;;;5049390;28;20115;-69
2023/06/28 02:52:02;;;;;;;12.18;7.75;;;;;;;;;;5050772;28;20418;-69
2023/06/28 02:54:27;;;;;;;12.50;6.32;;;;;;;;;;5050774;28;20479;-69
2023/06/28 02:56:53;;;;;;;13.38;6.20;;;;;;;;;;5050567;28;20507;-69
2023/06/28 02:59:45;;;;;;;11.25;6.50;;;;;;;;;;5049563;28;20069;-69
2023/06/28 03:02:14;;;;;;;10.65;6.20;;;;;;;;;;5059142;28;20060;-68
2023/06/28 03:04:41;;;;;;;11.00;6.05;;;;;;;;;;5069898;28;20123;-69
2023/06/28 03:07:15;;;;;;;12.05;6.07;;;;;;;;;;5070633;28;20033;-68
2023/06/28 03:09:41;;;;;;;8.93;6.25;;;;;;;;;;5066829;28;20054;-69
2023/06/28 03:12:08;;;;;;;9.63;5.82;;;;;;;;;;5051660;28;20100;-69
2023/06/28 03:14:34;;;;;;;8.85;6.07;;;;;;;;;;5050223;28;20540;-69
2023/06/28 03:17:00;;;;;;;12.20;6.72;;;;;;;;;;5067075;28;20033;-69
2023/06/28 03:19:26;;;;;;;14.18;6.60;;;;;;;;;;5049676;28;20051;-69
2023/06/28 03:21:51;;;;;;;13.75;7.00;;;;;;;;;;5050128;28;20186;-68
2023/06/28 03:24:17;;;;;;;8.50;5.90;;;;;;;;;;5054755;28;20483;-69
2023/06/28 03:26:43;;;;;;;18.10;7.50;;;;;;;;;;5055520;28;20024;-69
2023/06/28 03:29:09;;;;;;;21.00;6.70;;;;;;;;;;5053703;28;20033;-69
2023/06/28 03:31:35;;;;;;;13.20;5.90;;;;;;;;;;5054409;28;20021;-69
2023/06/28 03:34:01;;;;;;;19.05;6.53;;;;;;;;;;5054208;28;20040;-69
2023/06/28 03:36:27;;;;;;;10.18;5.60;;;;;;;;;;5054106;28;20028;-68
2023/06/28 03:38:54;;;;;;;14.57;6.57;;;;;;;;;;5054737;28;20052;-68
2023/06/28 03:41:20;;;;;;;8.45;5.43;;;;;;;;;;5070230;28;20036;-69
2023/06/28 03:43:46;;;;;;;13.70;5.80;;;;;;;;;;5053648;28;20043;-69
2023/06/28 03:46:12;;;;;;;13.75;5.45;;;;;;;;;;5055216;28;20055;-68
2023/06/28 03:48:39;;;;;;;14.43;6.75;;;;;;;;;;5055026;28;20037;-69
2023/06/28 03:51:05;;;;;;;11.88;5.90;;;;;;;;;;5054014;28;20020;-68
2023/06/28 03:53:31;;;;;;;15.40;5.63;;;;;;;;;;5071483;28;20028;-68
2023/06/28 03:55:58;;;;;;;13.60;5.85;;;;;;;;;;5073328;28;20028;-68
2023/06/28 03:58:24;;;;;;;16.05;6.00;;;;;;;;;;5077038;28;20055;-68
2023/06/28 04:00:50;;;;;;;11.18;6.55;;;;;;;;;;5079005;28;20048;-68
2023/06/28 04:03:16;;;;;;;8.88;5.70;;;;;;;;;;5087490;28;20778;-68
2023/06/28 04:05:42;;;;;;;13.52;6.65;;;;;;;;;;5092247;28;20024;-69
2023/06/28 04:08:08;;;;;;;11.55;6.55;;;;;;;;;;5093633;28;20032;-69
2023/06/28 04:10:37;;;;;;;11.73;6.13;;;;;;;;;;5093549;28;20100;-69
2023/06/28 04:13:02;;;;;;;14.75;6.38;;;;;;;;;;5093726;28;20113;-69
2023/06/28 04:15:28;;;;;;;20.00;6.50;;;;;;;;;;5094250;28;20070;-68
2023/06/28 04:17:54;;;;;;;10.07;6.03;;;;;;;;;;5086772;28;20028;-67
2023/06/28 04:20:20;;;;;;;10.45;5.78;;;;;;;;;;5086040;28;20026;-68
2023/06/28 04:22:46;;;;;;;13.57;5.50;;;;;;;;;;5095130;28;20131;-69
2023/06/28 04:25:12;;;;;;;13.15;5.13;;;;;;;;;;5058572;28;20024;-69
2023/06/28 04:27:38;;;;;;;11.02;5.57;;;;;;;;;;5054572;28;20041;-69
2023/06/28 04:30:05;;;;;;;7.80;5.18;;;;;;;;;;5054259;28;20029;-68
2023/06/28 04:32:31;;;;;;;8.90;5.75;;;;;;;;;;5052919;28;20041;-68
2023/06/28 04:34:59;;;;;;;11.95;5.03;;;;;;;;;;5054348;28;20027;-69
2023/06/28 04:37:27;;;;;;;12.52;6.10;;;;;;;;;;5059624;28;20115;-69
2023/06/28 04:39:56;;;;;;;12.40;5.78;;;;;;;;;;5066842;28;20363;-69
2023/06/28 04:42:22;;;;;;;12.25;5.72;;;;;;;;;;5069485;28;20024;-69
2023/06/28 04:44:48;;;;;;;11.30;5.97;;;;;;;;;;5071614;28;20039;-70
2023/06/28 04:47:17;;;;;;;13.90;5.75;;;;;;;;;;5073397;28;20028;-70
2023/06/28 04:49:48;;;;;;;12.95;5.95;;;;;;;;;;5067195;28;20060;-70
2023/06/28 04:52:19;;;;;;;8.90;5.38;;;;;;;;;;5072381;28;20119;-68
2023/06/28 04:54:46;;;;;;;8.70;5.72;;;;;;;;;;5071620;28;20075;-69
2023/06/28 04:57:14;;;;;;;11.63;5.97;;;;;;;;;;5070252;28;20029;-69
2023/06/28 04:59:40;;;;;;;11.68;6.68;;;;;;;;;;5072983;28;20048;-69
2023/06/28 05:02:06;;;;;;;9.93;5.93;;;;;;;;;;5072687;28;20099;-69
2023/06/28 05:04:37;;;;;;;11.93;6.55;;;;;;;;;;5069491;28;20097;-69
2023/06/28 05:07:05;;;;;;;12.32;6.30;;;;;;;;;;5072934;28;20082;-69
2023/06/28 05:09:32;;;;;;;11.13;5.68;;;;;;;;;;5072662;28;20031;-72
2023/06/28 05:12:01;;;;;;;11.20;5.55;;;;;;;;;;5074006;28;20044;-73
2023/06/28 05:14:28;;;;;;;8.25;5.13;;;;;;;;;;5073014;28;20025;-72
2023/06/28 05:16:56;;;;;;;11.02;5.53;;;;;;;;;;5070094;28;20379;-71
2023/06/28 05:19:24;;;;;;;12.40;5.57;;;;;;;;;;5088077;28;20031;-71
2023/06/28 05:21:50;;;;;;;12.35;6.18;;;;;;;;;;5081379;28;20257;-71
2023/06/28 05:24:17;;;;;;;16.50;5.78;;;;;;;;;;5072017;28;20027;-70
2023/06/28 05:26:43;;;;;;;8.77;5.85;;;;;;;;;;5071764;28;20041;-71
2023/06/28 05:29:08;;;;;;;9.70;5.72;;;;;;;;;;5072626;28;20016;-70
2023/06/28 05:31:38;;;;;;;10.95;6.28;;;;;;;;;;5081060;28;20509;-71
2023/06/28 05:34:04;;;;;;;9.13;5.22;;;;;;;;;;5072932;28;20189;-71
2023/06/28 05:36:31;;;;;;;8.25;5.07;;;;;;;;;;5071353;28;20032;-70
2023/06/28 05:38:57;;;;;;;10.82;5.85;;;;;;;;;;5080186;28;20025;-70
2023/06/28 05:41:23;;;;;;;9.93;4.90;;;;;;;;;;5070996;28;20028;-70
2023/06/28 05:43:49;;;;;;;6.63;4.88;;;;;;;;;;5079332;28;20028;-70
2023/06/28 05:46:15;;;;;;;8.60;4.90;;;;;;;;;;5071110;28;20474;-70
2023/06/28 05:48:40;;;;;;;8.00;4.47;;;;;;;;;;5070636;28;20048;-72
2023/06/28 05:51:09;;;;;;;13.15;5.88;;;;;;;;;;5068692;28;20037;-70
2023/06/28 05:53:39;;;;;;;8.57;5.28;;;;;;;;;;5071559;28;20012;-69
2023/06/28 05:56:06;;;;;;;8.40;4.93;;;;;;;;;;5080192;28;20029;-70
2023/06/28 05:58:32;;;;;;;7.75;5.15;;;;;;;;;;5080094;28;20490;-69
2023/06/28 06:00:58;;;;;;;7.32;4.45;;;;;;;;;;5049736;28;20043;-70
2023/06/28 06:03:23;;;;;;;10.45;4.72;;;;;;;;;;5067062;28;20111;-70
2023/06/28 06:05:51;;;;;;;6.72;4.88;;;;;;;;;;5063372;28;20478;-69
2023/06/28 06:08:17;;;;;;;10.85;5.55;;;;;;;;;;5065258;28;20039;-70
2023/06/28 06:10:43;;;;;;;9.70;4.95;;;;;;;;;;5069142;28;20036;-71
2023/06/28 06:13:09;;;;;;;6.65;4.65;;;;;;;;;;5068509;28;20047;-70
2023/06/28 06:15:35;;;;;;;6.50;4.47;;;;;;;;;;5071592;28;20040;-70
2023/06/28 06:18:00;;;;;;;13.85;4.95;;;;;;;;;;5079750;28;20016;-70
2023/06/28 06:20:27;;;;;;;7.60;4.57;;;;;;;;;;5087071;28;20036;-70
2023/06/28 06:22:52;;;;;;;10.85;4.50;;;;;;;;;;5091443;28;20435;-70
2023/06/28 06:25:18;;;;;;;8.95;4.85;;;;;;;;;;5089848;28;20174;-71
2023/06/28 06:27:44;;;;;;;11.93;5.13;;;;;;;;;;5091775;28;20024;-70
2023/06/28 06:30:10;;;;;;;11.23;4.82;;;;;;;;;;5090644;28;20040;-70
2023/06/28 06:32:36;;;;;;;10.43;4.70;;;;;;;;;;5070937;28;20588;-71
2023/06/28 06:35:02;;;;;;;8.63;4.53;;;;;;;;;;5082676;28;20036;-71
2023/06/28 06:37:28;;;;;;;8.48;4.90;;;;;;;;;;5084092;28;20462;-71
2023/06/28 06:39:54;;;;;;;8.32;4.45;;;;;;;;;;5062207;28;20052;-71
2023/06/28 06:42:20;;;;;;;7.35;4.80;;;;;;;;;;5071904;28;20021;-70
2023/06/28 06:44:47;;;;;;;10.20;5.07;;;;;;;;;;5068719;28;20041;-72
2023/06/28 06:47:13;;;;;;;7.18;5.13;;;;;;;;;;5079268;28;20501;-72
2023/06/28 06:49:38;;;;;;;7.47;4.63;;;;;;;;;;5087437;28;20040;-72
2023/06/28 06:52:05;;;;;;;7.97;4.60;;;;;;;;;;5074104;28;20411;-72
2023/06/28 06:54:30;;;;;;;8.07;4.65;;;;;;;;;;5071541;28;20038;-73
2023/06/28 06:56:57;;;;;;;9.55;5.00;;;;;;;;;;5064647;28;20028;-71
2023/06/28 06:59:23;;;;;;;8.93;4.70;;;;;;;;;;5065029;28;20075;-72
2023/06/28 07:01:53;;;;;;;8.90;5.32;;;;;;;;;;5067154;28;20474;-73
2023/06/28 07:04:21;;;;;;;8.68;4.93;;;;;;;;;;5070811;28;20115;-73
2023/06/28 07:06:47;;;;;;;5.65;4.07;;;;;;;;;;5074188;28;20057;-73
2023/06/28 07:09:17;;;;;;;8.25;5.05;;;;;;;;;;5076942;28;20036;-72
2023/06/28 07:11:44;;;;;;;11.18;4.60;;;;;;;;;;5066436;28;20040;-73
2023/06/28 07:14:10;;;;;;;9.52;5.22;;;;;;;;;;5065377;28;20042;-71
2023/06/28 07:16:36;;;;;;;9.27;4.30;;;;;;;;;;5070923;28;20028;-72
2023/06/28 07:19:03;;;;;;;10.70;4.65;;;;;;;;;;5063293;28;20537;-74
2023/06/28 07:21:29;;;;;;;10.10;4.50;;;;;;;;;;5066941;28;20025;-73
2023/06/28 07:23:55;;;;;;;6.40;4.47;;;;;;;;;;5071507;28;20032;-75
2023/06/28 07:26:22;;;;;;;10.52;5.05;;;;;;;;;;5044593;28;20052;-71
2023/06/28 07:28:49;;;;;;;8.88;5.03;;;;;;;;;;5084413;28;20115;-73
2023/06/28 07:31:14;;;;;;;7.82;4.63;;;;;;;;;;5077277;28;20099;-72
2023/06/28 07:33:40;;;;;;;6.47;4.40;;;;;;;;;;5066194;28;20021;-72
2023/06/28 07:36:06;;;;;;;11.23;4.95;;;;;;;;;;5069927;28;20073;-73
2023/06/28 07:38:33;;;;;;;11.48;5.03;;;;;;;;;;5069989;28;20040;-72
2023/06/28 07:41:01;;;;;;;8.18;5.43;;;;;;;;;;5077822;28;20078;-74
2023/06/28 07:43:27;;;;;;;7.25;4.22;;;;;;;;;;5067410;28;20055;-73
2023/06/28 07:45:53;;;;;;;10.00;5.45;;;;;;;;;;5090827;28;20032;-71
2023/06/28 07:48:19;;;;;;;5.90;4.43;;;;;;;;;;5090149;28;20116;-71
2023/06/28 07:50:47;;;;;;;8.25;5.47;;;;;;;;;;5090006;28;20099;-73
2023/06/28 07:53:13;;;;;;;8.30;4.70;;;;;;;;;;5082554;28;20074;-73
2023/06/28 07:55:38;;;;;;;9.23;4.70;;;;;;;;;;5090582;28;20032;-72
2023/06/28 07:58:05;;;;;;;9.98;4.82;;;;;;;;;;5090928;28;20089;-72
2023/06/28 08:00:31;;;;;;;8.77;4.88;;;;;;;;;;5091187;28;20020;-71
2023/06/28 08:02:58;;;;;;;9.73;5.20;;;;;;;;;;5089761;28;20574;-72
2023/06/28 08:05:25;;;;;;;15.43;8.43;;;;;;;;;;5089962;28;20027;-73
2023/06/28 08:07:54;;;;;;;6.85;5.10;;;;;;;;;;5091367;28;20039;-72
2023/06/28 08:10:20;;;;;;;6.97;4.90;;;;;;;;;;5093988;28;20036;-72
2023/06/28 08:12:47;;;;;;;10.45;5.32;;;;;;;;;;5094722;28;20043;-72
2023/06/28 08:15:13;;;;;;;15.80;5.13;;;;;;;;;;5092923;28;20032;-71
2023/06/28 08:17:39;;;;;;;7.03;5.47;;;;;;;;;;5093230;28;20073;-71
2023/06/28 08:20:06;;;;;;;8.60;4.97;;;;;;;;;;5094431;28;20046;-72
2023/06/28 08:22:33;;;;;;;6.25;4.70;;;;;;;;;;5093715;28;20028;-72
2023/06/28 08:24:58;;;;;;;7.25;4.97;;;;;;;;;;5094719;28;20057;-72
2023/06/28 08:27:24;;;;;;;7.15;5.35;;;;;;;;;;5092993;28;20119;-72
2023/06/28 08:29:50;;;;;;;8.60;4.97;;;;;;;;;;5093614;28;20643;-72
2023/06/28 08:32:16;;;;;;;9.73;5.28;;;;;;;;;;5093870;28;20119;-71
2023/06/28 08:34:42;;;;;;;10.57;4.93;;;;;;;;;;5093955;28;20109;-71
2023/06/28 08:37:08;;;;;;;8.32;4.88;;;;;;;;;;5093818;28;20097;-72
2023/06/28 08:39:38;;;;;;;6.15;4.55;;;;;;;;;;5092464;28;20040;-72
2023/06/28 08:42:05;;;;;;;12.25;5.35;;;;;;;;;;5079311;28;20403;-71
2023/06/28 08:44:43;;;;;;;8.45;5.07;;;;;;;;;;5053544;28;20029;-72
2023/06/28 08:47:09;;;;;;;10.43;5.13;;;;;;;;;;5037253;28;20055;-72
2023/06/28 08:49:36;;;;;;;7.47;5.40;;;;;;;;;;5052891;28;20029;-71
2023/06/28 08:52:03;;;;;;;8.30;5.38;;;;;;;;;;5053546;28;20466;-72
2023/06/28 08:54:31;;;;;;;6.75;4.95;;;;;;;;;;5035985;28;20025;-72
2023/06/28 08:56:58;;;;;;;10.57;5.78;;;;;;;;;;5052511;28;20111;-72
2023/06/28 08:59:26;;;;;;;9.75;5.55;;;;;;;;;;5053446;28;20056;-73
2023/06/28 09:01:55;;;;;;;9.15;4.90;;;;;;;;;;5053441;28;20040;-72
2023/06/28 09:04:26;;;;;;;10.45;5.32;;;;;;;;;;5053491;28;20021;-72
2023/06/28 09:06:52;;;;;;;6.95;5.40;;;;;;;;;;5053291;28;20045;-72
2023/06/28 09:09:18;;;;;;;8.63;4.82;;;;;;;;;;5053148;28;20036;-73
2023/06/28 09:11:46;;;;;;;12.85;5.40;;;;;;;;;;5052191;28;20037;-71
2023/06/28 09:14:13;;;;;;;7.22;5.03;;;;;;;;;;5051831;28;20035;-71
2023/06/28 09:16:39;;;;;;;9.10;4.97;;;;;;;;;;5053545;28;20064;-71
2023/06/28 09:19:05;;;;;;;6.47;4.82;;;;;;;;;;5053537;28;20423;-71
2023/06/28 09:21:33;;;;;;;7.25;4.90;;;;;;;;;;5065391;28;20042;-72
2023/06/28 09:24:00;;;;;;;7.55;5.57;;;;;;;;;;5073148;28;20131;-71
2023/06/28 09:26:33;;;;;;;10.05;5.10;;;;;;;;;;5080681;28;20029;-71
2023/06/28 09:29:09;;;;;;;;;;;;;;;;;;5091301;28;20146;-71
2023/06/28 09:31:44;;;;;;;7.55;5.32;;;;;;;;;;5093272;28;19973;-72
2023/06/28 09:34:10;;;;;;;5.75;4.80;;;;;;;;;;5092348;28;20489;-72
2023/06/28 09:36:37;;;;;;;7.78;4.85;;;;;;;;;;5093170;28;20020;-72
2023/06/28 09:39:05;;;;;;;6.38;4.97;;;;;;;;;;5091214;28;20111;-72
2023/06/28 09:41:43;;;;;;;11.00;5.47;;;;;;;;;;5092079;28;20039;-71
2023/06/28 09:44:12;;;;;;;8.85;4.72;;;;;;;;;;5092603;28;20031;-71
2023/06/28 09:46:46;;;;;;;9.43;5.20;;;;;;;;;;5092067;28;20107;-71
2023/06/28 09:49:22;;;;;;;8.00;4.80;;;;;;;;;;5092051;28;20046;-73
2023/06/28 09:52:14;;;;;;;9.48;5.10;;;;;;;;;;5092244;28;20044;-71
2023/06/28 09:54:44;;;;;;;6.20;4.80;;;;;;;;;;5089622;28;20040;-72
2023/06/28 09:57:11;;;;;;;8.98;4.90;;;;;;;;;;5091794;28;20088;-71
2023/06/28 09:59:37;;;;;;;7.50;4.68;;;;;;;;;;5091372;28;20517;-71
2023/06/28 10:02:06;;;;;;;6.85;4.55;;;;;;;;;;5089687;28;20429;-73
2023/06/28 10:04:34;;;;;;;10.57;5.28;;;;;;;;;;5091906;28;20023;-71
2023/06/28 10:07:02;;;;;;;13.68;6.22;;;;;;;;;;5091213;28;20051;-71
2023/06/28 10:09:39;;;;;;;8.70;4.95;;;;;;;;;;5091398;28;20040;-72
2023/06/28 10:12:14;;;;;;;9.10;5.75;;;;;;;;;;5090830;28;20043;-71
2023/06/28 10:14:44;;;;;;;8.45;5.53;;;;;;;;;;5092230;28;20024;-72
2023/06/28 10:17:13;;;;;;;12.60;5.35;;;;;;;;;;5092353;28;20101;-71
2023/06/28 10:19:39;;;;;;;9.68;5.40;;;;;;;;;;5091621;28;20102;-72
2023/06/28 10:22:07;;;;;;;7.05;5.05;;;;;;;;;;5091766;28;20068;-73
2023/06/28 10:24:36;;;;;;;7.30;5.30;;;;;;;;;;5090799;28;20052;-72
2023/06/28 10:27:03;;;;;;;8.55;6.07;;;;;;;;;;5083228;28;20039;-71
2023/06/28 10:29:30;;;;;;;8.75;5.32;;;;;;;;;;5084957;28;20065;-70
2023/06/28 10:31:56;;;;;;;7.78;5.18;;;;;;;;;;5092003;28;20419;-71
2023/06/28 10:34:22;;;;;;;9.50;5.20;;;;;;;;;;5091221;28;20093;-71
2023/06/28 10:36:48;;;;;;;7.40;4.82;;;;;;;;;;5070926;28;20037;-71
2023/06/28 10:39:16;;;;;;;8.02;5.30;;;;;;;;;;5082597;28;20111;-71
2023/06/28 10:41:43;;;;;;;8.07;5.05;;;;;;;;;;5091423;28;20104;-71
2023/06/28 10:44:09;;;;;;;14.25;6.57;;;;;;;;;;5090646;28;20097;-72
2023/06/28 10:46:37;;;;;;;7.00;4.50;;;;;;;;;;5092636;28;20036;-70
2023/06/28 10:49:03;;;;;;;7.18;4.40;;;;;;;;;;5057424;28;20028;-71
2023/06/28 10:51:31;;;;;;;8.32;4.28;;;;;;;;;;5051614;28;20172;-71
2023/06/28 10:54:12;;;;;;;6.53;4.13;;;;;;;;;;5051247;28;20123;-72
2023/06/28 10:56:49;;;;;;;6.73;4.23;;;;;;;;;;5051143;28;20029;-72
2023/06/28 10:59:15;;;;;;;7.30;4.97;;;;;;;;;;5049515;28;20102;-72
2023/06/28 11:01:51;;;;;;;8.68;5.25;;;;;;;;;;5049813;28;20450;-72
2023/06/28 11:04:25;;;;;;;7.15;4.72;;;;;;;;;;5050870;28;20048;-73
2023/06/28 11:07:10;;;;;;;5.50;4.20;;;;;;;;;;5050017;28;20118;-73
2023/06/28 11:09:36;;;;;;;6.63;4.85;;;;;;;;;;5050368;28;20032;-72
2023/06/28 11:12:03;;;;;;;6.50;4.75;;;;;;;;;;5050750;28;20120;-73
2023/06/28 11:14:32;;;;;;;6.25;4.50;;;;;;;;;;5051179;28;20032;-72
2023/06/28 11:17:02;;;;;;;6.68;5.00;;;;;;;;;;5049648;28;20056;-72
2023/06/28 11:19:29;;;;;;;7.20;4.60;;;;;;;;;;5049231;28;20094;-73
2023/06/28 11:22:00;;;;;;;8.48;4.43;;;;;;;;;;5050765;28;20387;-75
2023/06/28 11:24:29;;;;;;;7.93;4.82;;;;;;;;;;5049572;28;20051;-75
2023/06/28 11:26:57;;;;;;;6.35;5.28;;;;;;;;;;5055854;28;20024;-74
2023/06/28 11:29:23;;;;;;;7.80;4.60;;;;;;;;;;5089448;28;20040;-73
2023/06/28 11:31:49;;;;;;;5.68;4.20;;;;;;;;;;5089967;28;20507;-74
2023/06/28 11:34:15;;;;;;;6.72;4.93;;;;;;;;;;5091054;28;20066;-74
2023/06/28 11:36:49;;;;;;;8.02;5.20;;;;;;;;;;5088227;28;20031;-74
2023/06/28 11:39:22;;;;;;;5.43;4.53;;;;;;;;;;5090067;28;20043;-75
2023/06/28 11:41:48;;;;;;;8.07;4.80;;;;;;;;;;5089148;28;20115;-73
2023/06/28 11:44:16;;;;;;;5.43;4.47;;;;;;;;;;5090772;28;20463;-75
2023/06/28 11:46:45;;;;;;;6.22;4.95;;;;;;;;;;5094446;28;20386;-74
2023/06/28 11:49:11;;;;;;;5.68;4.60;;;;;;;;;;5093937;28;20032;-73
2023/06/28 11:51:37;;;;;;;10.57;4.60;;;;;;;;;;5094138;28;20043;-72
2023/06/28 11:54:07;;;;;;;8.63;5.18;;;;;;;;;;5110982;28;20019;-72
2023/06/28 11:56:37;;;;;;;6.60;4.32;;;;;;;;;;5094781;28;20439;-73
2023/06/28 11:59:19;;;;;;;8.23;5.28;;;;;;;;;;5095118;28;20051;-72
2023/06/28 12:01:45;;;;;;;7.77;4.40;;;;;;;;;;5095377;28;20122;-73
2023/06/28 12:04:19;;;;;;;6.72;4.65;;;;;;;;;;5094973;28;20288;-72
2023/06/28 12:06:46;;;;;;;8.10;5.60;;;;;;;;;;5095668;28;20132;-73
2023/06/28 12:09:24;;;;;;;6.20;4.15;;;;;;;;;;5095101;28;20027;-73
2023/06/28 12:12:06;;;;;;;6.10;4.20;;;;;;;;;;5094242;28;20071;-74
2023/06/28 12:14:44;;;;;;;7.10;4.70;;;;;;;;;;5095416;28;20020;-73
2023/06/28 12:17:11;;;;;;;6.95;4.93;;;;;;;;;;5095169;28;20078;-73
2023/06/28 12:19:39;;;;;;;7.65;5.20;;;;;;;;;;5095227;28;20051;-74
2023/06/28 12:22:07;;;;;;;10.32;4.72;;;;;;;;;;5093908;28;20042;-74
2023/06/28 12:24:37;;;;;;;6.55;4.70;;;;;;;;;;5094837;28;20020;-73
2023/06/28 12:27:05;;;;;;;7.28;4.60;;;;;;;;;;5075835;28;20513;-74
2023/06/28 12:29:36;;;;;;;5.70;4.70;;;;;;;;;;5074276;28;20074;-73
2023/06/28 12:32:11;;;;;;;7.55;4.80;;;;;;;;;;5096839;28;20075;-74
2023/06/28 12:34:38;;;;;;;8.25;5.20;;;;;;;;;;5054821;28;20051;-73
2023/06/28 12:37:12;;;;;;;8.63;5.55;;;;;;;;;;5062349;28;20391;-74
2023/06/28 12:39:40;;;;;;;7.90;4.68;;;;;;;;;;5075425;28;20045;-73
2023/06/28 12:42:11;;;;;;;6.25;4.28;;;;;;;;;;5074123;28;20032;-74
2023/06/28 12:44:56;;;;;;;6.53;4.75;;;;;;;;;;5074261;28;20075;-73
2023/06/28 12:47:32;;;;;;;8.25;4.75;;;;;;;;;;5073723;28;20037;-72
2023/06/28 12:49:58;;;;;;;7.55;4.95;;;;;;;;;;5082113;28;20039;-73
2023/06/28 12:52:27;;;;;;;10.95;5.45;;;;;;;;;;5082175;28;20020;-74
2023/06/28 12:54:53;;;;;;;8.07;4.82;;;;;;;;;;5079658;28;20111;-73
2023/06/28 12:57:22;;;;;;;9.25;4.65;;;;;;;;;;5083158;28;20028;-73
2023/06/28 12:59:49;;;;;;;7.30;5.13;;;;;;;;;;5073437;28;20131;-71
2023/06/28 13:02:15;;;;;;;7.10;4.57;;;;;;;;;;5082161;28;20024;-73
2023/06/28 13:04:41;;;;;;;6.50;4.60;;;;;;;;;;5081980;28;20094;-73
2023/06/28 13:07:09;;;;;;;6.47;4.70;;;;;;;;;;5082098;28;20039;-72
2023/06/28 13:09:37;;;;;;;7.07;4.22;;;;;;;;;;5069106;28;20037;-73
2023/06/28 13:12:04;;;;;;;4.88;4.38;;;;;;;;;;5052617;28;20032;-73
2023/06/28 13:14:30;;;;;;;7.05;4.90;;;;;;;;;;5079439;28;20028;-73
2023/06/28 13:16:56;;;;;;;8.70;4.80;;;;;;;;;;5087727;28;20028;-72
2023/06/28 13:19:23;;;;;;;7.05;4.30;;;;;;;;;;5093815;28;20036;-73
2023/06/28 13:21:51;;;;;;;8.10;4.63;;;;;;;;;;5093770;28;20389;-72
2023/06/28 13:24:19;;;;;;;8.10;4.75;;;;;;;;;;5093414;28;20044;-72
2023/06/28 13:26:45;;;;;;;8.43;4.90;;;;;;;;;;5093919;28;20384;-73
2023/06/28 13:29:11;;;;;;;5.60;4.63;;;;;;;;;;5093649;28;20042;-71
2023/06/28 13:31:37;;;;;;;9.73;4.63;;;;;;;;;;5093569;28;20103;-72
2023/06/28 13:34:03;;;;;;;6.57;4.60;;;;;;;;;;5093101;28;20116;-73
2023/06/28 13:36:29;;;;;;;7.60;4.53;;;;;;;;;;5093906;28;20023;-72
2023/06/28 13:38:55;;;;;;;6.03;4.50;;;;;;;;;;5093431;28;20459;-70
2023/06/28 13:41:20;;;;;;;5.63;4.60;;;;;;;;;;5092119;28;20028;-72
2023/06/28 13:43:46;;;;;;;5.82;4.63;;;;;;;;;;5092314;28;20670;-71
2023/06/28 13:46:12;;;;;;;5.53;4.45;;;;;;;;;;5092130;28;20032;-72
2023/06/28 13:48:38;;;;;;;9.18;4.85;;;;;;;;;;5092025;28;20036;-73
2023/06/28 13:51:04;;;;;;;6.38;4.78;;;;;;;;;;5092131;28;20504;-71
2023/06/28 13:53:29;;;;;;;8.85;4.97;;;;;;;;;;5092895;28;20093;-72
2023/06/28 13:55:58;;;;;;;5.47;4.30;;;;;;;;;;5093190;28;20027;-72
2023/06/28 13:58:26;;;;;;;7.93;5.25;;;;;;;;;;5093250;28;20102;-72
2023/06/28 14:00:56;;;;;;;9.15;4.93;;;;;;;;;;5093218;28;20024;-73
2023/06/28 14:03:26;;;;;;;6.90;4.68;;;;;;;;;;5075664;28;20036;-73
2023/06/28 14:05:54;;;;;;;6.93;4.70;;;;;;;;;;5072099;28;20482;-72
2023/06/28 14:08:21;;;;;;;8.15;4.78;;;;;;;;;;5072403;28;20044;-71
2023/06/28 14:10:47;;;;;;;10.35;5.38;;;;;;;;;;5072678;28;20032;-73
2023/06/28 14:13:14;;;;;;;8.65;4.85;;;;;;;;;;5072802;28;20123;-74
2023/06/28 14:15:41;;;;;;;8.23;4.50;;;;;;;;;;5072564;28;20381;-72
2023/06/28 14:18:07;;;;;;;8.07;4.72;;;;;;;;;;5072068;28;20575;-73
2023/06/28 14:20:32;;;;;;;10.52;6.00;;;;;;;;;;5072222;28;20025;-74
2023/06/28 14:22:58;;;;;;;8.70;5.70;;;;;;;;;;5072457;28;20024;-72
2023/06/28 14:25:24;;;;;;;7.57;5.13;;;;;;;;;;5070896;28;20462;-72
2023/06/28 14:27:51;;;;;;;7.47;5.80;;;;;;;;;;5072294;28;20090;-71
2023/06/28 14:30:19;;;;;;;10.07;5.90;;;;;;;;;;5072006;28;20035;-71
2023/06/28 14:32:46;;;;;;;10.55;5.90;;;;;;;;;;5071881;28;20043;-72
2023/06/28 14:35:14;;;;;;;8.00;5.28;;;;;;;;;;5071963;28;20021;-73
2023/06/28 14:37:40;;;;;;;8.13;5.05;;;;;;;;;;5070700;28;20425;-71
2023/06/28 14:40:06;;;;;;;8.18;5.05;;;;;;;;;;5068787;28;20040;-72